sensor_id;sensor_type;location;lat;lon;timestamp;pressure;altitude;pressure_sealevel;temperature;humidity
8707;BME280;75512;49.302;9.306;2024-01-15T00:01:22;98758.09;;;-6.58;65.82
8707;BME280;75512;49.302;9.306;2024-01-15T00:03:50;98750.78;;;-6.87;66.32
8707;BME280;75512;49.302;9.306;2024-01-15T00:06:19;98763.38;;;-7.06;67.30
8707;BME280;75512;49.302;9.306;2024-01-15T00:08:47;98747.00;;;-7.21;68.11
8707;BME280;75512;49.302;9.306;2024-01-15T00:11:15;98748.56;;;-7.17;68.11
8707;BME280;75512;49.302;9.306;2024-01-15T00:13:43;98758.31;;;-6.84;68.26
8707;BME280;75512;49.302;9.306;2024-01-15T00:16:10;98751.97;;;-6.96;67.29
8707;BME280;75512;49.302;9.306;2024-01-15T00:18:38;98758.03;;;-6.78;67.44
8707;BME280;75512;49.302;9.306;2024-01-15T00:21:06;98740.59;;;-6.45;66.25
8707;BME280;75512;49.302;9.306;2024-01-15T00:23:36;98760.09;;;-6.66;67.09
8707;BME280;75512;49.302;9.306;2024-01-15T00:26:04;98740.50;;;-6.84;67.19
8707;BME280;75512;49.302;9.306;2024-01-15T00:28:36;98743.97;;;-6.45;66.67
8707;BME280;75512;49.302;9.306;2024-01-15T00:31:04;98741.97;;;-6.79;67.53
8707;BME280;75512;49.302;9.306;2024-01-15T00:33:32;98731.59;;;-6.74;68.05
8707;BME280;75512;49.302;9.306;2024-01-15T00:36:00;98726.75;;;-6.58;67.94
8707;BME280;75512;49.302;9.306;2024-01-15T00:38:28;98729.47;;;-6.43;67.42
8707;BME280;75512;49.302;9.306;2024-01-15T00:40:58;98730.41;;;-6.86;68.92
8707;BME280;75512;49.302;9.306;2024-01-15T00:43:25;98715.16;;;-6.86;69.52
8707;BME280;75512;49.302;9.306;2024-01-15T00:45:53;98694.47;;;-6.98;69.08
8707;BME280;75512;49.302;9.306;2024-01-15T00:48:22;98716.88;;;-6.86;69.47
8707;BME280;75512;49.302;9.306;2024-01-15T00:50:50;98722.72;;;-6.84;69.22
8707;BME280;75512;49.302;9.306;2024-01-15T00:53:18;98703.09;;;-6.60;71.23
8707;BME280;75512;49.302;9.306;2024-01-15T00:55:46;98716.88;;;-6.66;71.03
8707;BME280;75512;49.302;9.306;2024-01-15T00:58:15;98712.03;;;-6.52;69.82
8707;BME280;75512;49.302;9.306;2024-01-15T01:00:43;98710.59;;;-6.57;69.71
8707;BME280;75512;49.302;9.306;2024-01-15T01:03:11;98710.00;;;-6.84;70.27
8707;BME280;75512;49.302;9.306;2024-01-15T01:05:39;98695.66;;;-7.07;70.95
8707;BME280;75512;49.302;9.306;2024-01-15T01:08:07;98714.97;;;-6.41;69.84
8707;BME280;75512;49.302;9.306;2024-01-15T01:10:35;98705.59;;;-6.20;68.49
8707;BME280;75512;49.302;9.306;2024-01-15T01:13:03;98712.72;;;-6.08;68.55
8707;BME280;75512;49.302;9.306;2024-01-15T01:15:32;98705.16;;;-6.29;68.37
8707;BME280;75512;49.302;9.306;2024-01-15T01:18:01;98712.03;;;-6.72;69.90
8707;BME280;75512;49.302;9.306;2024-01-15T01:20:29;98725.50;;;-6.50;69.38
8707;BME280;75512;49.302;9.306;2024-01-15T01:22:57;98709.31;;;-6.47;69.74
8707;BME280;75512;49.302;9.306;2024-01-15T01:25:24;98703.91;;;-6.40;69.34
8707;BME280;75512;49.302;9.306;2024-01-15T01:27:52;98702.69;;;-6.72;70.75
8707;BME280;75512;49.302;9.306;2024-01-15T01:30:20;98710.50;;;-6.56;70.49
8707;BME280;75512;49.302;9.306;2024-01-15T01:32:50;98711.81;;;-6.27;69.52
8707;BME280;75512;49.302;9.306;2024-01-15T01:35:18;98707.44;;;-6.23;68.67
8707;BME280;75512;49.302;9.306;2024-01-15T01:37:46;98706.25;;;-6.55;70.87
8707;BME280;75512;49.302;9.306;2024-01-15T01:40:14;98722.25;;;-6.74;70.04
8707;BME280;75512;49.302;9.306;2024-01-15T01:42:41;98720.38;;;-6.68;70.63
8707;BME280;75512;49.302;9.306;2024-01-15T01:45:10;98717.88;;;-6.29;69.62
8707;BME280;75512;49.302;9.306;2024-01-15T01:47:38;98702.81;;;-6.34;69.88
8707;BME280;75512;49.302;9.306;2024-01-15T01:50:08;98725.03;;;-6.38;70.05
8707;BME280;75512;49.302;9.306;2024-01-15T01:52:36;98736.66;;;-6.32;71.15
8707;BME280;75512;49.302;9.306;2024-01-15T01:55:06;98712.78;;;-6.29;72.12
8707;BME280;75512;49.302;9.306;2024-01-15T01:57:35;98698.59;;;-6.15;71.40
8707;BME280;75512;49.302;9.306;2024-01-15T02:00:04;98710.47;;;-6.34;69.73
8707;BME280;75512;49.302;9.306;2024-01-15T02:02:39;98702.03;;;-5.97;70.50
8707;BME280;75512;49.302;9.306;2024-01-15T02:05:09;98697.06;;;-5.80;68.05
8707;BME280;75512;49.302;9.306;2024-01-15T02:07:38;98701.56;;;-6.05;68.91
8707;BME280;75512;49.302;9.306;2024-01-15T02:10:06;98704.03;;;-6.04;69.90
8707;BME280;75512;49.302;9.306;2024-01-15T02:12:35;98713.28;;;-6.21;69.23
8707;BME280;75512;49.302;9.306;2024-01-15T02:15:04;98713.19;;;-6.39;70.78
8707;BME280;75512;49.302;9.306;2024-01-15T02:17:32;98707.91;;;-6.34;70.02
8707;BME280;75512;49.302;9.306;2024-01-15T02:20:00;98711.66;;;-6.04;68.95
8707;BME280;75512;49.302;9.306;2024-01-15T02:22:29;98690.38;;;-6.21;68.74
8707;BME280;75512;49.302;9.306;2024-01-15T02:24:58;98693.53;;;-6.35;69.53
8707;BME280;75512;49.302;9.306;2024-01-15T02:27:26;98713.81;;;-6.33;70.35
8707;BME280;75512;49.302;9.306;2024-01-15T02:29:54;98700.03;;;-6.68;70.50
8707;BME280;75512;49.302;9.306;2024-01-15T02:32:23;98692.63;;;-6.75;70.43
8707;BME280;75512;49.302;9.306;2024-01-15T02:34:51;98707.75;;;-6.11;69.13
8707;BME280;75512;49.302;9.306;2024-01-15T02:37:19;98706.72;;;-6.07;68.93
8707;BME280;75512;49.302;9.306;2024-01-15T02:39:47;98722.59;;;-6.02;67.76
8707;BME280;75512;49.302;9.306;2024-01-15T02:42:16;98712.22;;;-5.97;67.82
8707;BME280;75512;49.302;9.306;2024-01-15T02:44:44;98713.16;;;-5.79;67.84
8707;BME280;75512;49.302;9.306;2024-01-15T02:47:12;98702.16;;;-6.19;68.32
8707;BME280;75512;49.302;9.306;2024-01-15T02:49:40;98710.94;;;-6.06;69.03
8707;BME280;75512;49.302;9.306;2024-01-15T02:52:08;98692.31;;;-6.47;68.95
8707;BME280;75512;49.302;9.306;2024-01-15T02:54:36;98703.06;;;-6.01;68.17
8707;BME280;75512;49.302;9.306;2024-01-15T02:57:04;98707.84;;;-5.56;66.05
8707;BME280;75512;49.302;9.306;2024-01-15T02:59:34;98723.28;;;-5.23;64.92
8707;BME280;75512;49.302;9.306;2024-01-15T03:02:02;98708.97;;;-5.80;66.65
8707;BME280;75512;49.302;9.306;2024-01-15T03:04:30;98707.31;;;-5.81;67.29
8707;BME280;75512;49.302;9.306;2024-01-15T03:06:58;98696.88;;;-5.39;65.34
8707;BME280;75512;49.302;9.306;2024-01-15T03:09:26;98705.44;;;-5.59;66.11
8707;BME280;75512;49.302;9.306;2024-01-15T03:11:54;98715.53;;;-5.76;66.35
8707;BME280;75512;49.302;9.306;2024-01-15T03:14:22;98698.28;;;-5.70;65.92
8707;BME280;75512;49.302;9.306;2024-01-15T03:16:53;98702.03;;;-6.16;67.52
8707;BME280;75512;49.302;9.306;2024-01-15T03:19:21;98699.75;;;-6.22;68.95
8707;BME280;75512;49.302;9.306;2024-01-15T03:21:49;98688.78;;;-6.24;68.31
8707;BME280;75512;49.302;9.306;2024-01-15T03:24:17;98682.94;;;-6.06;67.24
8707;BME280;75512;49.302;9.306;2024-01-15T03:26:45;98695.09;;;-6.12;67.85
8707;BME280;75512;49.302;9.306;2024-01-15T03:29:13;98695.88;;;-5.91;68.38
8707;BME280;75512;49.302;9.306;2024-01-15T03:31:41;98693.59;;;-6.37;69.34
8707;BME280;75512;49.302;9.306;2024-01-15T03:34:11;98691.72;;;-6.13;68.47
8707;BME280;75512;49.302;9.306;2024-01-15T03:36:39;98687.84;;;-6.21;68.08
8707;BME280;75512;49.302;9.306;2024-01-15T03:39:07;98696.16;;;-5.79;67.01
8707;BME280;75512;49.302;9.306;2024-01-15T03:41:35;98693.19;;;-5.70;67.73
8707;BME280;75512;49.302;9.306;2024-01-15T03:44:03;98686.38;;;-5.69;67.56
8707;BME280;75512;49.302;9.306;2024-01-15T03:46:32;98689.53;;;-5.83;67.42
8707;BME280;75512;49.302;9.306;2024-01-15T03:49:00;98665.56;;;-5.97;67.68
8707;BME280;75512;49.302;9.306;2024-01-15T03:51:29;98668.22;;;-6.38;68.96
8707;BME280;75512;49.302;9.306;2024-01-15T03:53:57;98661.88;;;-6.48;68.68
8707;BME280;75512;49.302;9.306;2024-01-15T03:56:25;98670.66;;;-6.16;68.22
8707;BME280;75512;49.302;9.306;2024-01-15T03:58:53;98664.69;;;-6.15;69.09
8707;BME280;75512;49.302;9.306;2024-01-15T04:01:21;98678.41;;;-5.80;67.76
8707;BME280;75512;49.302;9.306;2024-01-15T04:03:49;98669.94;;;-5.81;67.45
8707;BME280;75512;49.302;9.306;2024-01-15T04:06:17;98663.25;;;-5.83;66.75
8707;BME280;75512;49.302;9.306;2024-01-15T04:08:46;98661.78;;;-5.70;67.82
8707;BME280;75512;49.302;9.306;2024-01-15T04:11:14;98659.19;;;-5.87;67.67
8707;BME280;75512;49.302;9.306;2024-01-15T04:13:42;98661.13;;;-5.92;68.64
8707;BME280;75512;49.302;9.306;2024-01-15T04:16:10;98666.53;;;-5.62;67.83
8707;BME280;75512;49.302;9.306;2024-01-15T04:18:38;98655.00;;;-5.33;66.21
8707;BME280;75512;49.302;9.306;2024-01-15T04:21:06;98651.50;;;-5.14;65.08
8707;BME280;75512;49.302;9.306;2024-01-15T04:23:34;98640.16;;;-4.74;63.77
8707;BME280;75512;49.302;9.306;2024-01-15T04:26:03;98649.47;;;-4.55;62.51
8707;BME280;75512;49.302;9.306;2024-01-15T04:28:31;98635.47;;;-4.15;60.96
8707;BME280;75512;49.302;9.306;2024-01-15T04:30:59;98662.41;;;-4.25;61.87
8707;BME280;75512;49.302;9.306;2024-01-15T04:33:27;98657.94;;;-4.72;63.18
8707;BME280;75512;49.302;9.306;2024-01-15T04:35:55;98657.22;;;-4.74;63.48
8707;BME280;75512;49.302;9.306;2024-01-15T04:38:23;98647.31;;;-4.80;64.32
8707;BME280;75512;49.302;9.306;2024-01-15T04:40:51;98625.03;;;-4.77;63.45
8707;BME280;75512;49.302;9.306;2024-01-15T04:43:25;98619.34;;;-4.82;62.88
8707;BME280;75512;49.302;9.306;2024-01-15T04:45:53;98655.22;;;-5.38;65.59
8707;BME280;75512;49.302;9.306;2024-01-15T04:48:22;98633.94;;;-5.37;64.86
8707;BME280;75512;49.302;9.306;2024-01-15T04:50:50;98638.72;;;-5.67;66.36
8707;BME280;75512;49.302;9.306;2024-01-15T04:53:18;98645.28;;;-5.80;67.07
8707;BME280;75512;49.302;9.306;2024-01-15T04:55:46;98665.13;;;-6.06;68.88
8707;BME280;75512;49.302;9.306;2024-01-15T04:58:14;98649.25;;;-5.56;66.73
8707;BME280;75512;49.302;9.306;2024-01-15T05:00:43;98648.72;;;-5.26;65.25
8707;BME280;75512;49.302;9.306;2024-01-15T05:03:12;98646.00;;;-5.41;65.93
8707;BME280;75512;49.302;9.306;2024-01-15T05:05:40;98639.81;;;-5.01;64.52
8707;BME280;75512;49.302;9.306;2024-01-15T05:08:08;98629.22;;;-5.27;65.82
8707;BME280;75512;49.302;9.306;2024-01-15T05:10:36;98634.13;;;-5.59;66.85
8707;BME280;75512;49.302;9.306;2024-01-15T05:13:04;98634.34;;;-5.82;67.86
8707;BME280;75512;49.302;9.306;2024-01-15T05:15:32;98647.13;;;-5.65;67.43
8707;BME280;75512;49.302;9.306;2024-01-15T05:18:02;98629.00;;;-5.23;66.21
8707;BME280;75512;49.302;9.306;2024-01-15T05:20:30;98645.03;;;-5.21;64.92
8707;BME280;75512;49.302;9.306;2024-01-15T05:22:59;98635.16;;;-5.10;65.81
8707;BME280;75512;49.302;9.306;2024-01-15T05:25:27;98642.88;;;-5.64;66.98
8707;BME280;75512;49.302;9.306;2024-01-15T05:27:57;98649.25;;;-5.75;67.79
8707;BME280;75512;49.302;9.306;2024-01-15T05:30:25;98629.44;;;-5.68;66.78
8707;BME280;75512;49.302;9.306;2024-01-15T05:32:53;98637.63;;;-5.61;68.14
8707;BME280;75512;49.302;9.306;2024-01-15T05:35:23;98642.91;;;-5.47;66.85
8707;BME280;75512;49.302;9.306;2024-01-15T05:37:51;98619.44;;;-5.54;66.67
8707;BME280;75512;49.302;9.306;2024-01-15T05:40:19;98644.97;;;-5.19;66.31
8707;BME280;75512;49.302;9.306;2024-01-15T05:42:47;98615.59;;;-5.09;65.79
8707;BME280;75512;49.302;9.306;2024-01-15T05:45:16;98604.03;;;-5.33;65.68
8707;BME280;75512;49.302;9.306;2024-01-15T05:47:44;98617.34;;;-5.82;67.14
8707;BME280;75512;49.302;9.306;2024-01-15T05:50:12;98614.41;;;-6.10;69.26
8707;BME280;75512;49.302;9.306;2024-01-15T05:52:41;98612.47;;;-6.24;70.30
8707;BME280;75512;49.302;9.306;2024-01-15T05:55:09;98624.56;;;-5.73;68.54
8707;BME280;75512;49.302;9.306;2024-01-15T05:57:37;98633.72;;;-5.69;68.45
8707;BME280;75512;49.302;9.306;2024-01-15T06:00:06;98623.75;;;-5.92;69.15
8707;BME280;75512;49.302;9.306;2024-01-15T06:02:37;98614.88;;;-6.02;69.92
8707;BME280;75512;49.302;9.306;2024-01-15T06:05:05;98613.84;;;-5.26;67.60
8707;BME280;75512;49.302;9.306;2024-01-15T06:07:34;98592.16;;;-5.52;67.29
8707;BME280;75512;49.302;9.306;2024-01-15T06:10:04;98584.50;;;-5.69;67.63
8707;BME280;75512;49.302;9.306;2024-01-15T06:12:33;98580.34;;;-6.08;70.65
8707;BME280;75512;49.302;9.306;2024-01-15T06:15:01;98599.53;;;-5.82;69.54
8707;BME280;75512;49.302;9.306;2024-01-15T06:17:29;98592.31;;;-5.55;68.41
8707;BME280;75512;49.302;9.306;2024-01-15T06:19:58;98599.63;;;-5.13;67.26
8707;BME280;75512;49.302;9.306;2024-01-15T06:22:26;98591.44;;;-5.19;66.79
8707;BME280;75512;49.302;9.306;2024-01-15T06:24:54;98576.44;;;-4.58;64.83
8707;BME280;75512;49.302;9.306;2024-01-15T06:27:24;98594.09;;;-4.38;64.53
8707;BME280;75512;49.302;9.306;2024-01-15T06:29:52;98595.75;;;-4.21;63.62
8707;BME280;75512;49.302;9.306;2024-01-15T06:32:22;98589.66;;;-4.50;65.11
8707;BME280;75512;49.302;9.306;2024-01-15T06:34:50;98582.69;;;-5.31;67.43
8707;BME280;75512;49.302;9.306;2024-01-15T06:37:19;98581.69;;;-5.11;67.08
8707;BME280;75512;49.302;9.306;2024-01-15T06:39:47;98586.81;;;-5.28;67.85
8707;BME280;75512;49.302;9.306;2024-01-15T06:42:15;98577.97;;;-5.75;68.82
8707;BME280;75512;49.302;9.306;2024-01-15T06:44:45;98612.41;;;-5.85;69.42
8707;BME280;75512;49.302;9.306;2024-01-15T06:47:13;98605.44;;;-6.00;71.34
8707;BME280;75512;49.302;9.306;2024-01-15T06:49:41;98586.03;;;-5.84;70.28
8707;BME280;75512;49.302;9.306;2024-01-15T06:52:09;98601.81;;;-5.58;69.61
8707;BME280;75512;49.302;9.306;2024-01-15T06:54:38;98595.91;;;-5.78;69.83
8707;BME280;75512;49.302;9.306;2024-01-15T06:57:06;98602.94;;;-5.47;69.80
8707;BME280;75512;49.302;9.306;2024-01-15T06:59:34;98606.88;;;-5.40;69.29
8707;BME280;75512;49.302;9.306;2024-01-15T07:02:04;98587.38;;;-5.23;68.20
8707;BME280;75512;49.302;9.306;2024-01-15T07:04:33;98589.66;;;-5.00;67.07
8707;BME280;75512;49.302;9.306;2024-01-15T07:07:01;98585.19;;;-5.48;68.93
8707;BME280;75512;49.302;9.306;2024-01-15T07:09:29;98596.59;;;-5.55;69.73
8707;BME280;75512;49.302;9.306;2024-01-15T07:11:57;98618.94;;;-5.79;70.20
8707;BME280;75512;49.302;9.306;2024-01-15T07:14:26;98625.25;;;-5.69;70.19
8707;BME280;75512;49.302;9.306;2024-01-15T07:16:54;98608.00;;;-5.11;68.16
8707;BME280;75512;49.302;9.306;2024-01-15T07:19:23;98621.72;;;-4.96;67.49
8707;BME280;75512;49.302;9.306;2024-01-15T07:21:52;98623.38;;;-4.95;66.59
8707;BME280;75512;49.302;9.306;2024-01-15T07:24:23;98609.16;;;-4.49;65.72
8707;BME280;75512;49.302;9.306;2024-01-15T07:26:51;98599.97;;;-4.86;66.80
8707;BME280;75512;49.302;9.306;2024-01-15T07:29:19;98617.31;;;-4.92;67.22
8707;BME280;75512;49.302;9.306;2024-01-15T07:31:49;98623.38;;;-4.45;65.72
8707;BME280;75512;49.302;9.306;2024-01-15T07:34:17;98605.34;;;-4.57;65.57
8707;BME280;75512;49.302;9.306;2024-01-15T07:36:47;98612.78;;;-4.37;64.90
8707;BME280;75512;49.302;9.306;2024-01-15T07:39:16;98624.75;;;-4.22;66.16
8707;BME280;75512;49.302;9.306;2024-01-15T07:41:44;98624.22;;;-4.44;66.77
8707;BME280;75512;49.302;9.306;2024-01-15T07:44:12;98607.25;;;-4.45;65.21
8707;BME280;75512;49.302;9.306;2024-01-15T07:46:44;98621.16;;;-4.51;66.65
8707;BME280;75512;49.302;9.306;2024-01-15T07:49:12;98632.34;;;-4.53;66.25
8707;BME280;75512;49.302;9.306;2024-01-15T07:51:40;98629.06;;;-4.55;66.23
8707;BME280;75512;49.302;9.306;2024-01-15T07:54:12;98617.22;;;-4.41;65.86
8707;BME280;75512;49.302;9.306;2024-01-15T07:56:56;98629.38;;;-4.96;67.78
8707;BME280;75512;49.302;9.306;2024-01-15T07:59:25;98613.41;;;-4.82;67.78
8707;BME280;75512;49.302;9.306;2024-01-15T08:01:53;98619.19;;;-5.30;68.82
8707;BME280;75512;49.302;9.306;2024-01-15T08:04:21;98623.38;;;-5.12;69.01
8707;BME280;75512;49.302;9.306;2024-01-15T08:06:50;98629.22;;;-5.10;69.19
8707;BME280;75512;49.302;9.306;2024-01-15T08:09:20;98626.97;;;-4.99;67.84
8707;BME280;75512;49.302;9.306;2024-01-15T08:11:49;98607.78;;;-5.23;68.79
8707;BME280;75512;49.302;9.306;2024-01-15T08:14:17;98621.03;;;-5.34;69.92
8707;BME280;75512;49.302;9.306;2024-01-15T08:16:46;98632.69;;;-5.11;68.74
8707;BME280;75512;49.302;9.306;2024-01-15T08:19:14;98637.47;;;-5.22;69.64
8707;BME280;75512;49.302;9.306;2024-01-15T08:21:42;98613.78;;;-5.07;69.36
8707;BME280;75512;49.302;9.306;2024-01-15T08:24:11;98608.47;;;-4.85;68.29
8707;BME280;75512;49.302;9.306;2024-01-15T08:26:40;98601.13;;;-5.09;68.47
8707;BME280;75512;49.302;9.306;2024-01-15T08:29:09;98605.59;;;-4.79;68.34
8707;BME280;75512;49.302;9.306;2024-01-15T08:31:37;98599.41;;;-5.08;67.59
8707;BME280;75512;49.302;9.306;2024-01-15T08:34:05;98615.31;;;-4.70;67.57
8707;BME280;75512;49.302;9.306;2024-01-15T08:36:33;98609.66;;;-4.75;68.39
8707;BME280;75512;49.302;9.306;2024-01-15T08:39:03;98604.31;;;-4.88;68.65
8707;BME280;75512;49.302;9.306;2024-01-15T08:41:32;98612.44;;;-4.80;69.08
8707;BME280;75512;49.302;9.306;2024-01-15T08:44:02;98594.91;;;-5.03;70.09
8707;BME280;75512;49.302;9.306;2024-01-15T08:46:30;98617.75;;;-5.19;69.86
8707;BME280;75512;49.302;9.306;2024-01-15T08:48:58;98598.19;;;-5.36;71.42
8707;BME280;75512;49.302;9.306;2024-01-15T08:51:26;98599.69;;;-4.97;70.81
8707;BME280;75512;49.302;9.306;2024-01-15T08:53:55;98603.81;;;-5.12;71.29
8707;BME280;75512;49.302;9.306;2024-01-15T08:56:23;98606.59;;;-4.82;70.66
8707;BME280;75512;49.302;9.306;2024-01-15T08:58:51;98615.47;;;-4.56;70.47
8707;BME280;75512;49.302;9.306;2024-01-15T09:01:21;98615.13;;;-4.83;70.61
8707;BME280;75512;49.302;9.306;2024-01-15T09:03:50;98614.50;;;-4.53;69.87
8707;BME280;75512;49.302;9.306;2024-01-15T09:06:18;98599.94;;;-4.69;70.21
8707;BME280;75512;49.302;9.306;2024-01-15T09:08:47;98596.34;;;-4.64;71.46
8707;BME280;75512;49.302;9.306;2024-01-15T09:11:16;98602.78;;;-4.24;69.82
8707;BME280;75512;49.302;9.306;2024-01-15T09:13:44;98608.88;;;-4.27;69.94
8707;BME280;75512;49.302;9.306;2024-01-15T09:16:12;98610.53;;;-3.94;69.26
8707;BME280;75512;49.302;9.306;2024-01-15T09:18:42;98609.81;;;-3.96;69.47
8707;BME280;75512;49.302;9.306;2024-01-15T09:21:14;98596.59;;;-3.57;67.81
8707;BME280;75512;49.302;9.306;2024-01-15T09:23:43;98604.28;;;-3.73;67.66
8707;BME280;75512;49.302;9.306;2024-01-15T09:26:11;98603.88;;;-3.36;66.38
8707;BME280;75512;49.302;9.306;2024-01-15T09:28:39;98586.03;;;-3.67;67.64
8707;BME280;75512;49.302;9.306;2024-01-15T09:31:07;98598.00;;;-3.52;67.30
8707;BME280;75512;49.302;9.306;2024-01-15T09:33:36;98575.75;;;-3.66;68.13
8707;BME280;75512;49.302;9.306;2024-01-15T09:36:06;98578.22;;;-3.18;66.53
8707;BME280;75512;49.302;9.306;2024-01-15T09:38:34;98574.78;;;-3.94;67.75
8707;BME280;75512;49.302;9.306;2024-01-15T09:41:03;98558.06;;;-3.84;68.50
8707;BME280;75512;49.302;9.306;2024-01-15T09:43:33;98565.50;;;-3.50;68.29
8707;BME280;75512;49.302;9.306;2024-01-15T09:46:02;98566.19;;;-3.02;66.42
8707;BME280;75512;49.302;9.306;2024-01-15T09:48:30;98583.34;;;-3.34;67.62
8707;BME280;75512;49.302;9.306;2024-01-15T09:51:01;98570.00;;;-3.39;67.55
8707;BME280;75512;49.302;9.306;2024-01-15T09:53:31;98574.97;;;-3.97;68.92
8707;BME280;75512;49.302;9.306;2024-01-15T09:55:59;98568.59;;;-3.90;69.91
8707;BME280;75512;49.302;9.306;2024-01-15T09:58:28;98565.72;;;-4.64;71.78
8707;BME280;75512;49.302;9.306;2024-01-15T10:00:56;98566.09;;;-4.39;71.04
8707;BME280;75512;49.302;9.306;2024-01-15T10:03:25;98577.97;;;-4.38;71.74
8707;BME280;75512;49.302;9.306;2024-01-15T10:05:54;98561.69;;;-4.04;70.75
8707;BME280;75512;49.302;9.306;2024-01-15T10:08:23;98569.56;;;-4.40;70.98
8707;BME280;75512;49.302;9.306;2024-01-15T10:10:53;98558.19;;;-4.50;72.17
8707;BME280;75512;49.302;9.306;2024-01-15T10:13:21;98546.91;;;-4.46;72.42
8707;BME280;75512;49.302;9.306;2024-01-15T10:15:50;98556.41;;;-4.17;72.34
8707;BME280;75512;49.302;9.306;2024-01-15T10:18:18;98545.38;;;-4.17;72.48
8707;BME280;75512;49.302;9.306;2024-01-15T10:20:47;98541.16;;;-4.34;72.82
8707;BME280;75512;49.302;9.306;2024-01-15T10:23:15;98548.19;;;-4.06;72.93
8707;BME280;75512;49.302;9.306;2024-01-15T10:25:44;98529.22;;;-4.18;72.19
8707;BME280;75512;49.302;9.306;2024-01-15T10:28:13;98528.56;;;-3.90;71.28
8707;BME280;75512;49.302;9.306;2024-01-15T10:30:42;98536.03;;;-3.71;71.06
8707;BME280;75512;49.302;9.306;2024-01-15T10:33:10;98522.63;;;-3.90;71.58
8707;BME280;75512;49.302;9.306;2024-01-15T10:35:40;98537.03;;;-3.44;70.74
8707;BME280;75512;49.302;9.306;2024-01-15T10:38:09;98536.59;;;-3.36;69.66
8707;BME280;75512;49.302;9.306;2024-01-15T10:40:37;98535.22;;;-3.87;71.86
8707;BME280;75512;49.302;9.306;2024-01-15T10:43:05;98521.78;;;-3.75;71.05
8707;BME280;75512;49.302;9.306;2024-01-15T10:45:34;98531.47;;;-3.66;71.95
8707;BME280;75512;49.302;9.306;2024-01-15T10:48:03;98511.16;;;-3.23;70.46
8707;BME280;75512;49.302;9.306;2024-01-15T10:50:32;98523.97;;;-4.15;74.09
8707;BME280;75512;49.302;9.306;2024-01-15T10:53:00;98507.47;;;-3.93;73.40
8707;BME280;75512;49.302;9.306;2024-01-15T10:55:30;98512.72;;;-3.81;73.32
8707;BME280;75512;49.302;9.306;2024-01-15T10:57:59;98498.69;;;-3.44;72.26
8707;BME280;75512;49.302;9.306;2024-01-15T11:00:28;98510.50;;;-3.71;72.31
8707;BME280;75512;49.302;9.306;2024-01-15T11:02:57;98490.00;;;-3.85;72.77
8707;BME280;75512;49.302;9.306;2024-01-15T11:05:29;98516.28;;;-3.83;73.33
8707;BME280;75512;49.302;9.306;2024-01-15T11:08:01;98502.72;;;-3.70;73.56
8707;BME280;75512;49.302;9.306;2024-01-15T11:10:39;98486.84;;;-4.36;74.86
8707;BME280;75512;49.302;9.306;2024-01-15T11:13:10;98506.63;;;-3.78;73.96
8707;BME280;75512;49.302;9.306;2024-01-15T11:15:54;98504.09;;;-3.94;73.95
8707;BME280;75512;49.302;9.306;2024-01-15T11:18:26;98503.78;;;-3.58;73.24
8707;BME280;75512;49.302;9.306;2024-01-15T11:21:20;98511.03;;;-3.66;73.26
8707;BME280;75512;49.302;9.306;2024-01-15T11:23:49;98505.22;;;-3.84;74.08
8707;BME280;75512;49.302;9.306;2024-01-15T11:26:31;98500.44;;;-3.74;73.02
8707;BME280;75512;49.302;9.306;2024-01-15T11:29:01;98498.69;;;-4.35;75.61
8707;BME280;75512;49.302;9.306;2024-01-15T11:31:57;98485.84;;;-4.49;75.56
8707;BME280;75512;49.302;9.306;2024-01-15T11:34:56;98500.25;;;-4.48;76.18
8707;BME280;75512;49.302;9.306;2024-01-15T11:37:56;98487.97;;;-4.42;76.60
8707;BME280;75512;49.302;9.306;2024-01-15T11:40:38;98476.28;;;-4.61;77.53
8707;BME280;75512;49.302;9.306;2024-01-15T11:43:09;98483.09;;;-3.99;74.33
8707;BME280;75512;49.302;9.306;2024-01-15T11:45:40;98473.47;;;-4.10;74.95
8707;BME280;75512;49.302;9.306;2024-01-15T11:48:10;98478.53;;;-4.24;75.73
8707;BME280;75512;49.302;9.306;2024-01-15T11:50:42;98479.56;;;-3.96;74.44
8707;BME280;75512;49.302;9.306;2024-01-15T11:53:16;98468.25;;;-3.63;72.21
8707;BME280;75512;49.302;9.306;2024-01-15T11:55:45;98459.81;;;-3.49;71.58
8707;BME280;75512;49.302;9.306;2024-01-15T11:58:15;98455.84;;;-2.96;70.20
8707;BME280;75512;49.302;9.306;2024-01-15T12:00:45;98471.59;;;-3.46;71.23
8707;BME280;75512;49.302;9.306;2024-01-15T12:03:15;98463.41;;;-3.23;71.01
8707;BME280;75512;49.302;9.306;2024-01-15T12:05:45;98478.38;;;-3.61;72.68
8707;BME280;75512;49.302;9.306;2024-01-15T12:08:13;98476.06;;;-3.80;72.34
8707;BME280;75512;49.302;9.306;2024-01-15T12:10:41;98469.88;;;-3.76;74.17
8707;BME280;75512;49.302;9.306;2024-01-15T12:13:11;98463.69;;;-3.72;73.63
8707;BME280;75512;49.302;9.306;2024-01-15T12:15:41;98484.47;;;-3.93;73.67
8707;BME280;75512;49.302;9.306;2024-01-15T12:18:12;98472.84;;;-3.53;73.34
8707;BME280;75512;49.302;9.306;2024-01-15T12:20:42;98481.44;;;-3.54;72.49
8707;BME280;75512;49.302;9.306;2024-01-15T12:23:15;98461.56;;;-3.35;71.70
8707;BME280;75512;49.302;9.306;2024-01-15T12:25:45;98474.72;;;-3.27;71.13
8707;BME280;75512;49.302;9.306;2024-01-15T12:28:14;98485.03;;;-3.28;71.86
8707;BME280;75512;49.302;9.306;2024-01-15T12:30:46;98478.22;;;-3.00;70.43
8707;BME280;75512;49.302;9.306;2024-01-15T12:33:17;98460.94;;;-3.10;70.63
8707;BME280;75512;49.302;9.306;2024-01-15T12:35:46;98475.47;;;-3.11;70.58
8707;BME280;75512;49.302;9.306;2024-01-15T12:38:18;98458.91;;;-3.34;71.20
8707;BME280;75512;49.302;9.306;2024-01-15T12:40:46;98464.69;;;-3.60;71.44
8707;BME280;75512;49.302;9.306;2024-01-15T12:43:15;98466.66;;;-3.49;73.07
8707;BME280;75512;49.302;9.306;2024-01-15T12:45:43;98478.78;;;-2.94;70.93
8707;BME280;75512;49.302;9.306;2024-01-15T12:48:11;98502.59;;;-2.66;70.02
8707;BME280;75512;49.302;9.306;2024-01-15T12:50:42;98477.91;;;-2.52;68.99
8707;BME280;75512;49.302;9.306;2024-01-15T12:53:11;98485.94;;;-3.30;70.93
8707;BME280;75512;49.302;9.306;2024-01-15T12:55:40;98468.97;;;-3.16;71.71
8707;BME280;75512;49.302;9.306;2024-01-15T12:58:08;98483.97;;;-2.68;70.04
8707;BME280;75512;49.302;9.306;2024-01-15T13:00:37;98454.25;;;-3.13;71.08
8707;BME280;75512;49.302;9.306;2024-01-15T13:03:06;98466.34;;;-2.72;69.72
8707;BME280;75512;49.302;9.306;2024-01-15T13:05:34;98452.94;;;-2.63;69.01
8707;BME280;75512;49.302;9.306;2024-01-15T13:08:04;98473.38;;;-2.76;69.20
8707;BME280;75512;49.302;9.306;2024-01-15T13:10:32;98472.69;;;-2.65;68.75
8707;BME280;75512;49.302;9.306;2024-01-15T13:13:02;98476.09;;;-3.07;70.60
8707;BME280;75512;49.302;9.306;2024-01-15T13:15:30;98483.31;;;-2.57;68.71
8707;BME280;75512;49.302;9.306;2024-01-15T13:18:00;98490.63;;;-2.51;68.40
8707;BME280;75512;49.302;9.306;2024-01-15T13:20:28;98496.66;;;-2.66;68.55